WZZ256 LDSP-LOWW
Flight info
| Callsign | WZZ256 |
|---|---|
| Flight time | N/A |
| Altitude | 32000 |
| Route | UNIPA DCT OBUTI |
| Aircraft | A321/M-SDE2E3FGHIJ1RWXY/LB1 |
Departure
| Time | N/A |
|---|---|
| Airport | Split Saint Jerome Airport (LDSP) |
Arrival
| Time | 2026-04-22 19:09 |
|---|---|
| Airport | Vienna International Airport (LOWW) |
| Time | Latitude | Longitude | Altitude | Speed | Heading |
|---|---|---|---|---|---|
| 2026-04-22 18:42 | 46.45514 | 16.25606 | 29566 ft | 378 kts | 353° |
| 2026-04-22 18:42 | 46.48063 | 16.25000 | 29134 ft | 374 kts | 353° |
| 2026-04-22 18:42 | 46.50621 | 16.24392 | 28697 ft | 370 kts | 353° |
| 2026-04-22 18:43 | 46.53152 | 16.23792 | 28277 ft | 366 kts | 353° |
| 2026-04-22 18:43 | 46.55654 | 16.23197 | 27859 ft | 362 kts | 353° |
| 2026-04-22 18:43 | 46.58094 | 16.22617 | 27451 ft | 358 kts | 353° |
| 2026-04-22 18:43 | 46.60541 | 16.22035 | 27039 ft | 354 kts | 353° |
| 2026-04-22 18:44 | 46.62962 | 16.21460 | 26630 ft | 350 kts | 353° |
| 2026-04-22 18:44 | 46.65322 | 16.20898 | 26236 ft | 347 kts | 353° |
| 2026-04-22 18:44 | 46.67691 | 16.20336 | 25835 ft | 343 kts | 353° |
| 2026-04-22 18:44 | 46.70034 | 16.19777 | 25420 ft | 339 kts | 353° |
| 2026-04-22 18:45 | 46.72354 | 16.19223 | 25022 ft | 336 kts | 353° |
| 2026-04-22 18:45 | 46.74615 | 16.18682 | 24642 ft | 332 kts | 353° |
| 2026-04-22 18:45 | 46.76884 | 16.18141 | 24241 ft | 328 kts | 353° |
| 2026-04-22 18:45 | 46.79131 | 16.17606 | 23833 ft | 325 kts | 353° |
| 2026-04-22 18:46 | 46.81326 | 16.17079 | 23437 ft | 322 kts | 353° |
| 2026-04-22 18:46 | 46.83530 | 16.16551 | 23063 ft | 319 kts | 353° |
| 2026-04-22 18:46 | 46.85713 | 16.16028 | 22672 ft | 316 kts | 353° |
| 2026-04-22 18:46 | 46.87880 | 16.15508 | 22282 ft | 314 kts | 353° |
| 2026-04-22 18:47 | 46.90004 | 16.14997 | 21894 ft | 312 kts | 353° |
| 2026-04-22 18:47 | 46.92136 | 16.14484 | 21524 ft | 309 kts | 353° |
| 2026-04-22 18:47 | 46.94251 | 16.13976 | 21153 ft | 306 kts | 353° |
| 2026-04-22 18:47 | 46.96321 | 16.13477 | 20783 ft | 305 kts | 353° |
| 2026-04-22 18:48 | 46.98410 | 16.12973 | 20395 ft | 303 kts | 353° |
| 2026-04-22 18:48 | 47.00486 | 16.12472 | 20020 ft | 301 kts | 354° |
| 2026-04-22 18:48 | 47.02523 | 16.11980 | 19651 ft | 300 kts | 354° |
| 2026-04-22 18:48 | 47.04576 | 16.11484 | 19264 ft | 298 kts | 354° |
| 2026-04-22 18:49 | 47.06617 | 16.10992 | 18887 ft | 296 kts | 354° |
| 2026-04-22 18:49 | 47.08649 | 16.10505 | 18516 ft | 295 kts | 354° |
| 2026-04-22 18:49 | 47.10645 | 16.10027 | 18220 ft | 292 kts | 354° |
| 2026-04-22 18:49 | 47.12668 | 16.09546 | 18188 ft | 293 kts | 354° |
| 2026-04-22 18:50 | 47.14656 | 16.09071 | 18183 ft | 293 kts | 354° |
| 2026-04-22 18:50 | 47.16676 | 16.08584 | 18192 ft | 293 kts | 354° |
| 2026-04-22 18:50 | 47.18698 | 16.08090 | 18188 ft | 293 kts | 354° |
| 2026-04-22 18:50 | 47.20689 | 16.07602 | 18183 ft | 293 kts | 354° |
| 2026-04-22 18:51 | 47.22714 | 16.07106 | 18188 ft | 294 kts | 354° |
| 2026-04-22 18:51 | 47.24739 | 16.06610 | 18184 ft | 295 kts | 354° |
| 2026-04-22 18:51 | 47.26740 | 16.06119 | 18187 ft | 295 kts | 354° |
| 2026-04-22 18:51 | 47.28766 | 16.05624 | 18187 ft | 294 kts | 354° |
| 2026-04-22 18:52 | 47.30795 | 16.05523 | 18016 ft | 290 kts | 14° |
| 2026-04-22 18:52 | 47.32589 | 16.06787 | 17765 ft | 287 kts | 36° |
| 2026-04-22 18:52 | 47.34157 | 16.08540 | 17513 ft | 286 kts | 36° |
| 2026-04-22 18:52 | 47.35750 | 16.10289 | 17253 ft | 285 kts | 36° |
| 2026-04-22 18:53 | 47.37347 | 16.12013 | 16993 ft | 283 kts | 35° |
| 2026-04-22 18:53 | 47.38919 | 16.13694 | 16735 ft | 282 kts | 35° |
| 2026-04-22 18:53 | 47.40514 | 16.15389 | 16474 ft | 281 kts | 35° |
| 2026-04-22 18:53 | 47.42105 | 16.17072 | 16212 ft | 281 kts | 34° |
| 2026-04-22 18:54 | 47.43693 | 16.18749 | 15952 ft | 280 kts | 34° |
| 2026-04-22 18:54 | 47.45252 | 16.20394 | 15696 ft | 278 kts | 34° |
| 2026-04-22 18:54 | 47.46830 | 16.22055 | 15439 ft | 278 kts | 34° |
| 2026-04-22 18:54 | 47.48400 | 16.23712 | 15179 ft | 276 kts | 34° |
| 2026-04-22 18:55 | 47.49898 | 16.25431 | 14920 ft | 276 kts | 40° |
| 2026-04-22 18:55 | 47.51289 | 16.27397 | 14662 ft | 276 kts | 43° |
| 2026-04-22 18:55 | 47.52652 | 16.29393 | 14404 ft | 275 kts | 43° |
| 2026-04-22 18:55 | 47.54015 | 16.31379 | 14117 ft | 274 kts | 42° |
| 2026-04-22 18:56 | 47.55360 | 16.33322 | 13789 ft | 273 kts | 42° |
| 2026-04-22 18:56 | 47.56721 | 16.35278 | 13453 ft | 272 kts | 41° |
| 2026-04-22 18:56 | 47.58080 | 16.37223 | 13103 ft | 271 kts | 41° |
| 2026-04-22 18:56 | 47.59416 | 16.39134 | 12720 ft | 270 kts | 41° |
| 2026-04-22 18:57 | 47.60766 | 16.41061 | 12323 ft | 269 kts | 41° |
| 2026-04-22 18:57 | 47.62109 | 16.42978 | 11941 ft | 267 kts | 41° |
| 2026-04-22 18:57 | 47.63448 | 16.44891 | 11559 ft | 266 kts | 41° |
| 2026-04-22 18:57 | 47.64762 | 16.46767 | 11175 ft | 265 kts | 41° |
| 2026-04-22 18:58 | 47.66088 | 16.48663 | 10788 ft | 264 kts | 41° |
| 2026-04-22 18:58 | 47.67407 | 16.50548 | 10421 ft | 263 kts | 40° |
| 2026-04-22 18:58 | 47.68703 | 16.52401 | 10053 ft | 262 kts | 41° |
| 2026-04-22 18:58 | 47.70012 | 16.54275 | 9813 ft | 261 kts | 40° |
| 2026-04-22 18:59 | 47.71324 | 16.56154 | 9430 ft | 261 kts | 40° |
| 2026-04-22 18:59 | 47.72613 | 16.58003 | 9032 ft | 260 kts | 40° |
| 2026-04-22 18:59 | 47.73913 | 16.59868 | 8671 ft | 259 kts | 40° |
| 2026-04-22 18:59 | 47.75207 | 16.61725 | 8287 ft | 258 kts | 40° |
| 2026-04-22 19:00 | 47.76495 | 16.63577 | 7900 ft | 257 kts | 40° |
| 2026-04-22 19:00 | 47.77766 | 16.65405 | 7506 ft | 256 kts | 41° |
| 2026-04-22 19:00 | 47.79034 | 16.67231 | 7144 ft | 255 kts | 41° |
| 2026-04-22 19:00 | 47.80310 | 16.69067 | 6799 ft | 254 kts | 41° |
| 2026-04-22 19:01 | 47.81569 | 16.70883 | 6527 ft | 251 kts | 41° |
| 2026-04-22 19:01 | 47.82829 | 16.72693 | 6234 ft | 251 kts | 40° |
| 2026-04-22 19:01 | 47.84071 | 16.74464 | 5942 ft | 250 kts | 40° |
| 2026-04-22 19:01 | 47.85364 | 16.76172 | 5624 ft | 246 kts | 30° |
| 2026-04-22 19:02 | 47.86946 | 16.76953 | 5298 ft | 239 kts | 1° |
| 2026-04-22 19:02 | 47.88514 | 16.76411 | 4978 ft | 237 kts | 332° |
| 2026-04-22 19:02 | 47.89731 | 16.74763 | 4685 ft | 237 kts | 314° |
| 2026-04-22 19:02 | 47.90937 | 16.73153 | 4374 ft | 229 kts | 336° |
| 2026-04-22 19:03 | 47.92428 | 16.72711 | 4113 ft | 221 kts | 6° |
| 2026-04-22 19:03 | 47.93883 | 16.73388 | 3893 ft | 218 kts | 21° |
| 2026-04-22 19:03 | 47.95245 | 16.74349 | 3635 ft | 214 kts | 24° |
| 2026-04-22 19:03 | 47.96546 | 16.75324 | 3423 ft | 208 kts | 24° |
| 2026-04-22 19:04 | 47.97825 | 16.76294 | 3212 ft | 204 kts | 24° |
| 2026-04-22 19:04 | 47.99073 | 16.77245 | 3022 ft | 197 kts | 24° |
| 2026-04-22 19:04 | 48.00238 | 16.78073 | 2965 ft | 176 kts | 13° |
| 2026-04-22 19:04 | 48.01407 | 16.78095 | 2967 ft | 166 kts | 348° |
| 2026-04-22 19:05 | 48.02506 | 16.77623 | 3064 ft | 163 kts | 343° |
| 2026-04-22 19:05 | 48.03560 | 16.77033 | 3023 ft | 162 kts | 341° |
| 2026-04-22 19:05 | 48.04559 | 16.76231 | 2985 ft | 167 kts | 321° |
| 2026-04-22 19:05 | 48.05237 | 16.74822 | 2975 ft | 161 kts | 306° |
| 2026-04-22 19:06 | 48.05747 | 16.73402 | 2890 ft | 155 kts | 304° |
| 2026-04-22 19:06 | 48.06227 | 16.71959 | 2681 ft | 154 kts | 303° |
| 2026-04-22 19:06 | 48.06694 | 16.70521 | 2474 ft | 153 kts | 302° |
| 2026-04-22 19:07 | 48.07592 | 16.67737 | 2091 ft | 144 kts | 302° |
| 2026-04-22 19:07 | 48.08029 | 16.66388 | 1890 ft | 143 kts | 302° |
| 2026-04-22 19:07 | 48.08454 | 16.65078 | 1702 ft | 140 kts | 302° |
| 2026-04-22 19:07 | 48.08872 | 16.63775 | 1512 ft | 139 kts | 301° |
| 2026-04-22 19:08 | 48.09264 | 16.62458 | 1342 ft | 138 kts | 301° |
| 2026-04-22 19:08 | 48.09699 | 16.61157 | 1173 ft | 138 kts | 302° |
| 2026-04-22 19:08 | 48.10133 | 16.59878 | 976 ft | 138 kts | 300° |
| 2026-04-22 19:08 | 48.10551 | 16.58601 | 790 ft | 137 kts | 300° |
| 2026-04-22 19:09 | 48.10980 | 16.57317 | 611 ft | 135 kts | 299° |
| 2026-04-22 19:09 | 48.11243 | 16.56530 | 609 ft | 13 kts | 296° |